Terminal Aerodrome Forecast
Issued by NWS

Current Version | Previous Version | Text Only | Print | Product List | Glossary On
Versions: 1 2 3 4 5 6 7 8 9 10 11 12 13 14 15 16 17 18 19 20 21 22 23 24 25 26 27 28 29 30 31 32
000
FTUS45 KGJT 010531
TAFMTJ
TAF
KMTJ 010531Z 0106/0206 14008KT P6SM FEW110 BKN150
     FM011600 33005KT P6SM FEW110 SCT150
     FM012100 29007KT P6SM VCTS BKN100CB OVC150
     FM020300 13010KT P6SM VCSH BKN100=

USA.gov is the U.S. government's official web portal to all federal, state and local government web resources and services.